Waimea, HI (96796)

1:17 PM HST on December 09, 2016 (GMT -1000)
Barking Sands PMRF | | Change Station

Elev 13 ft 22.02 °N, 159.79 °W | Updated 21 minutes ago

Mostly Cloudy
Mostly Cloudy
80 °F
Feels Like 82 °F
N
6
Wind Variable Wind from NW

Today
High -- | Low -- °F
--% Chance of Precip.
Yesterday
High -- | Low -- °F
Precip. -- in
Pressure 29.91 in
Visibility 10.0 miles
Clouds Scattered Clouds 3100 ft
Mostly Cloudy 6500 ft
Heat Index 82 °F
Dew Point 65 °F
Humidity 60%
Rainfall 0.00 in
Snow Depth Not available.
7:06 AM 5:55 PM
Waxing Gibbous, 78% visible
METAR PHBK 092256Z AUTO 32005KT 10SM SCT031 BKN065 27/18 A2990 RMK AO2 SLP126 T02670183
Pressure 29.91 in
Visibility 10.0 miles
Clouds Scattered Clouds 3100 ft
Mostly Cloudy 6500 ft
Heat Index 82 °F
Dew Point 65 °F
Humidity 60%
Rainfall 0.00 in
Snow Depth Not available.
7:06 AM 5:55 PM
Waxing Gibbous, 78% visible
METAR PHBK 092256Z AUTO 32005KT 10SM SCT031 BKN065 27/18 A2990 RMK AO2 SLP126 T02670183

10-Day Weather Forecast

Almanac

Astronomy

Dec. 09, 2016 Rise Set
Actual Time
Civil Twilight
Nautical Twilight
Astronomical Twilight
Moon
Length of Visible Light
Length of Day
Tomorrow will be .
, % of the Moon is Illuminated

Today's Extremes

State Highs State Lows

Community

WunderPhotos

Upload Photos

1,956,535 photos uploaded!

WunderBlog® & News

Nearby

Air Quality

  Air Quality AQ Index Pollutant
Not available.

Snow Depth

Station Depth Elevation

Earthquake Activity

City Distance Mag. Time & Date
Minimum magnitude displayed is 2.5.

Coastal Water Temperatures

Place Temperature

Stations

Nearby Weather Stations

Station Location Temp. Windchill Dew Point Humidity Wind Precip. Elev Updated Type
                   

Watches & Warnings

There are currently no watches in effect.